Schedule Details


Flight Number: CTN320
Departure: Franjo Tudman (LDZA) at 08:30
Arrival: Ruzyne (LKPR) at 09:50
Route: PETOV DCT TISKO DCT OKF M725 TABEM Z401 VLM

Weather Information
LDZA 191030Z 10003KT 070V170 CAVOK 10/01 Q1021 NOSIG
LKPR 191049Z 22020G33KT 9999 BKN024 06/01 Q1013 RMK REG QNH 1011
Schedule Frequency

Route Map